Metar Aviation Weather Data KORD

61°F Temp
50°F Dewpoint
% Humidity
Temperature
5 MPH
8 KM/H
4 KTS
170°
Due South

Wind Speed
Clear
Conditions
Pressure 1008.12 (hPa) - 29.77 (in)
Visibility 9.0 (mi) - 14 (km)

Current Conditions
KORD
Metar :KORD 081551Z 17004KT 9SM CLR 16/10 A2977 RMK AO2 SLP079 T01560100
Wed 8th April 10:51 am

  Metar Aviation API Data Provided by https://www.checkwx.com/ PHP scripts by weather34.com ©2020